Time;durP1;ratioP1;P1;durP2;ratioP2;P2;SDS_P1;SDS_P2;PMS_P1;PMS_P2;Temp;Humidity;BMP_temperature;BMP_pressure;BME280_temperature;BME280_humidity;BME280_pressure;Samples;Min_cycle;Max_cycle;Signal;HPM_P1;HPM_P2
2022/06/13 00:00:19;;;;;;;3.70;1.70;;;;;;;;;;4996208;28;20191;-73
2022/06/13 00:02:45;;;;;;;4.77;1.87;;;;;;;;;;4997698;28;20278;-72
2022/06/13 00:05:12;;;;;;;3.10;1.50;;;;;;;;;;5009402;28;20310;-73
2022/06/13 00:07:38;;;;;;;4.43;1.87;;;;;;;;;;4998967;28;20180;-73
2022/06/13 00:10:05;;;;;;;4.33;1.60;;;;;;;;;;5000360;28;20179;-72
2022/06/13 00:12:32;;;;;;;5.40;1.83;;;;;;;;;;4994887;28;20196;-72
2022/06/13 00:14:58;;;;;;;4.47;1.80;;;;;;;;;;5003740;28;20639;-72
2022/06/13 00:17:24;;;;;;;3.73;2.00;;;;;;;;;;5004086;28;20661;-74
2022/06/13 00:19:51;;;;;;;4.20;2.03;;;;;;;;;;4999217;28;20263;-72
2022/06/13 00:22:17;;;;;;;4.53;1.73;;;;;;;;;;5004337;28;20192;-73
2022/06/13 00:24:43;;;;;;;3.57;1.70;;;;;;;;;;5002137;28;20176;-72
2022/06/13 00:27:10;;;;;;;9.23;1.80;;;;;;;;;;4983983;28;20188;-73
2022/06/13 00:29:41;;;;;;;2.63;1.40;;;;;;;;;;4994119;28;20180;-72
2022/06/13 00:32:16;;;;;;;3.00;1.50;;;;;;;;;;4995555;28;20203;-72
2022/06/13 00:34:43;;;;;;;3.63;1.63;;;;;;;;;;4999852;28;20309;-73
2022/06/13 00:37:10;;;;;;;5.07;1.67;;;;;;;;;;5004427;28;20183;-72
2022/06/13 00:39:36;;;;;;;4.37;1.80;;;;;;;;;;4992292;28;20184;-72
2022/06/13 00:42:02;;;;;;;2.93;1.70;;;;;;;;;;4996877;28;20190;-72
2022/06/13 00:44:36;;;;;;;3.03;1.60;;;;;;;;;;4999505;28;20172;-73
2022/06/13 00:47:03;;;;;;;4.63;1.80;;;;;;;;;;4996388;28;20215;-72
2022/06/13 00:49:38;;;;;;;3.67;1.63;;;;;;;;;;5000871;28;20193;-72
2022/06/13 00:52:10;;;;;;;3.20;1.60;;;;;;;;;;5019474;28;20195;-72
2022/06/13 00:54:38;;;;;;;3.97;1.70;;;;;;;;;;5014201;28;20187;-72
2022/06/13 00:57:06;;;;;;;5.03;1.60;;;;;;;;;;4975998;28;20196;-72
2022/06/13 00:59:33;;;;;;;5.60;1.90;;;;;;;;;;4994805;28;20234;-72
2022/06/13 01:02:00;;;;;;;3.87;1.73;;;;;;;;;;4992912;28;20579;-73
2022/06/13 01:04:26;;;;;;;4.23;1.90;;;;;;;;;;4993072;28;20180;-73
2022/06/13 01:06:53;;;;;;;2.90;1.60;;;;;;;;;;4992082;28;20235;-74
2022/06/13 01:11:16;;;;;;;4.40;1.80;;;;;;;;;;4998872;28;20206;-72
2022/06/13 01:12:08;;;;;;;6.17;2.00;;;;;;;;;;4990739;28;20203;-73
2022/06/13 01:14:51;;;;;;;5.73;1.97;;;;;;;;;;5004545;28;20252;-73
2022/06/13 01:17:36;;;;;;;8.17;2.33;;;;;;;;;;5006734;28;20184;-73
2022/06/13 01:20:21;;;;;;;4.60;2.10;;;;;;;;;;4993007;28;20654;-73
2022/06/13 01:22:48;;;;;;;5.33;2.07;;;;;;;;;;5002446;28;20187;-72
2022/06/13 01:25:33;;;;;;;3.70;2.17;;;;;;;;;;4994465;28;20618;-72
2022/06/13 01:27:59;;;;;;;4.20;1.90;;;;;;;;;;4997223;28;20203;-72
2022/06/13 01:30:43;;;;;;;3.73;1.97;;;;;;;;;;4991441;28;20214;-72
2022/06/13 01:33:15;;;;;;;5.83;1.90;;;;;;;;;;4995801;28;20329;-72
2022/06/13 01:36:08;;;;;;;5.23;2.03;;;;;;;;;;5000732;28;20195;-72
2022/06/13 01:38:48;;;;;;;3.93;1.73;;;;;;;;;;5008817;28;20183;-72
2022/06/13 01:41:18;;;;;;;5.00;2.17;;;;;;;;;;4988880;28;20211;-72
2022/06/13 01:43:52;;;;;;;5.40;2.17;;;;;;;;;;4993375;28;20837;-73
2022/06/13 01:46:28;;;;;;;5.23;1.97;;;;;;;;;;5011839;28;20211;-72
2022/06/13 01:49:19;;;;;;;5.17;2.10;;;;;;;;;;4991426;28;20197;-72
2022/06/13 01:51:45;;;;;;;3.97;2.10;;;;;;;;;;4988537;28;20203;-72
2022/06/13 01:54:25;;;;;;;3.17;1.80;;;;;;;;;;4998858;28;20190;-72
2022/06/13 01:57:18;;;;;;;6.47;2.53;;;;;;;;;;5007203;28;20284;-73
2022/06/13 01:59:44;;;;;;;3.10;2.00;;;;;;;;;;4984309;28;20685;-72
2022/06/13 02:02:14;;;;;;;3.60;1.90;;;;;;;;;;4998315;28;20218;-73
2022/06/13 02:04:44;;;;;;;4.40;2.03;;;;;;;;;;4991142;28;20196;-72
2022/06/13 02:07:33;;;;;;;4.90;1.90;;;;;;;;;;4992162;28;20199;-73
2022/06/13 02:10:19;;;;;;;2.43;1.73;;;;;;;;;;4993782;28;20199;-72
2022/06/13 02:12:49;;;;;;;5.67;2.30;;;;;;;;;;4999325;28;20176;-72
2022/06/13 02:15:19;;;;;;;4.67;2.13;;;;;;;;;;4996827;28;20199;-72
2022/06/13 02:17:49;;;;;;;5.23;2.10;;;;;;;;;;5001127;28;20183;-72
2022/06/13 02:20:25;;;;;;;5.60;2.17;;;;;;;;;;4991986;28;20192;-72
2022/06/13 02:22:57;;;;;;;6.27;2.10;;;;;;;;;;4996933;28;20195;-71
2022/06/13 02:25:28;;;;;;;5.63;2.07;;;;;;;;;;4997747;28;20202;-72
2022/06/13 02:27:59;;;;;;;5.83;2.30;;;;;;;;;;4999963;28;20183;-73
2022/06/13 02:30:30;;;;;;;5.67;2.30;;;;;;;;;;5016169;28;20203;-72
2022/06/13 02:33:04;;;;;;;5.43;2.57;;;;;;;;;;4995452;28;20708;-72
2022/06/13 02:35:41;;;;;;;5.33;2.50;;;;;;;;;;4992954;28;20531;-72
2022/06/13 02:38:13;;;;;;;3.77;1.80;;;;;;;;;;4999672;28;20186;-73
2022/06/13 02:40:46;;;;;;;5.93;2.50;;;;;;;;;;4994141;28;20212;-75
2022/06/13 02:43:21;;;;;;;4.30;2.30;;;;;;;;;;4994083;28;20223;-72
2022/06/13 02:45:47;;;;;;;4.87;2.40;;;;;;;;;;5003908;28;20303;-72
2022/06/13 02:48:19;;;;;;;4.47;2.03;;;;;;;;;;5013143;28;20186;-72
2022/06/13 02:50:52;;;;;;;5.90;2.20;;;;;;;;;;4994594;28;20199;-72
2022/06/13 02:53:33;;;;;;;4.83;2.17;;;;;;;;;;4987865;28;20551;-72
2022/06/13 02:56:08;;;;;;;5.40;2.00;;;;;;;;;;4996750;28;20569;-72
2022/06/13 02:58:40;;;;;;;4.80;2.17;;;;;;;;;;5000309;28;20603;-72
2022/06/13 03:01:09;;;;;;;4.93;2.30;;;;;;;;;;5008287;28;20706;-72
2022/06/13 03:03:53;;;;;;;6.03;2.20;;;;;;;;;;5005739;28;20572;-73
2022/06/13 03:06:31;;;;;;;4.97;2.37;;;;;;;;;;4993185;28;20283;-72
2022/06/13 03:09:00;;;;;;;4.13;2.50;;;;;;;;;;4995515;28;20175;-72
2022/06/13 03:11:35;;;;;;;5.30;2.80;;;;;;;;;;5005891;28;20285;-73
2022/06/13 03:14:19;;;;;;;6.23;2.40;;;;;;;;;;5002653;28;20190;-72
2022/06/13 03:16:53;;;;;;;6.63;2.60;;;;;;;;;;4992215;28;20572;-72
2022/06/13 03:19:39;;;;;;;5.63;2.60;;;;;;;;;;5008451;28;20213;-73
2022/06/13 03:22:09;;;;;;;6.70;2.60;;;;;;;;;;5001412;28;20202;-72
2022/06/13 03:24:54;;;;;;;5.83;2.77;;;;;;;;;;4995954;28;20603;-73
2022/06/13 03:27:40;;;;;;;5.90;2.67;;;;;;;;;;4997628;28;20659;-72
2022/06/13 03:30:11;;;;;;;8.70;2.60;;;;;;;;;;4989660;28;20199;-72
2022/06/13 03:35:38;;;;;;;5.43;2.60;;;;;;;;;;5005035;28;20472;-73
2022/06/13 03:38:06;;;;;;;4.23;2.60;;;;;;;;;;4993672;28;20187;-71
2022/06/13 03:40:33;;;;;;;7.63;3.20;;;;;;;;;;4982867;28;20209;-72
2022/06/13 03:43:05;;;;;;;6.10;2.70;;;;;;;;;;4992493;28;20234;-72
2022/06/13 03:45:48;;;;;;;6.67;2.87;;;;;;;;;;4997594;28;20728;-72
2022/06/13 03:48:23;;;;;;;5.87;2.73;;;;;;;;;;5007360;28;20183;-72
2022/06/13 03:51:00;;;;;;;6.13;3.00;;;;;;;;;;4997042;28;20199;-72
2022/06/13 03:53:28;;;;;;;4.97;2.47;;;;;;;;;;4997492;28;20175;-73
2022/06/13 03:55:57;;;;;;;8.27;2.90;;;;;;;;;;5007245;28;20206;-72
2022/06/13 03:58:33;;;;;;;4.13;2.43;;;;;;;;;;4993262;28;20188;-72
2022/06/13 04:01:02;;;;;;;4.97;2.60;;;;;;;;;;4993890;28;20253;-72
2022/06/13 04:03:29;;;;;;;4.40;2.80;;;;;;;;;;5005528;28;20183;-72
2022/06/13 04:05:57;;;;;;;3.93;2.33;;;;;;;;;;5004912;28;20203;-72
2022/06/13 04:08:24;;;;;;;5.77;2.60;;;;;;;;;;4997367;28;20188;-71
2022/06/13 04:10:52;;;;;;;4.90;2.67;;;;;;;;;;5006949;28;20227;-72
2022/06/13 04:13:25;;;;;;;5.17;2.67;;;;;;;;;;4996332;28;20207;-74
2022/06/13 04:15:58;;;;;;;7.90;2.80;;;;;;;;;;4994132;28;20230;-72
2022/06/13 04:18:42;;;;;;;5.23;2.33;;;;;;;;;;5002849;28;20683;-72
2022/06/13 04:21:17;;;;;;;4.70;2.67;;;;;;;;;;4995331;28;21741;-72
2022/06/13 04:24:02;;;;;;;6.13;2.97;;;;;;;;;;5000127;28;20186;-72
2022/06/13 04:26:38;;;;;;;3.80;2.37;;;;;;;;;;4993549;28;20206;-72
2022/06/13 04:29:09;;;;;;;5.90;2.50;;;;;;;;;;4993992;28;20187;-72
2022/06/13 04:31:36;;;;;;;5.33;2.40;;;;;;;;;;5011147;28;20195;-73
2022/06/13 04:34:11;;;;;;;5.10;2.70;;;;;;;;;;5007901;28;20176;-76
2022/06/13 04:36:38;;;;;;;3.50;2.23;;;;;;;;;;4994645;28;20175;-76
2022/06/13 04:39:06;;;;;;;5.20;2.37;;;;;;;;;;5003909;28;20195;-71
2022/06/13 04:41:34;;;;;;;5.93;2.60;;;;;;;;;;4994417;28;20270;-74
2022/06/13 04:44:02;;;;;;;5.63;2.70;;;;;;;;;;5003053;28;20274;-73
2022/06/13 04:46:30;;;;;;;6.47;2.70;;;;;;;;;;4996795;28;20295;-72
2022/06/13 04:48:57;;;;;;;6.37;2.80;;;;;;;;;;4995117;28;20218;-74
2022/06/13 04:51:31;;;;;;;6.67;3.00;;;;;;;;;;4993784;28;20199;-74
2022/06/13 04:54:26;;;;;;;4.13;2.70;;;;;;;;;;4990006;28;20180;-74
2022/06/13 04:56:56;;;;;;;7.73;3.20;;;;;;;;;;4979751;28;20295;-75
2022/06/13 04:59:23;;;;;;;5.63;3.00;;;;;;;;;;4984842;28;20598;-74
2022/06/13 05:01:50;;;;;;;5.53;2.77;;;;;;;;;;4988598;28;20203;-75
2022/06/13 05:04:18;;;;;;;6.27;2.97;;;;;;;;;;4997230;28;20182;-74
2022/06/13 05:06:46;;;;;;;7.27;3.10;;;;;;;;;;4987072;28;20211;-74
2022/06/13 05:09:17;;;;;;;4.70;2.70;;;;;;;;;;4985567;28;20207;-75
2022/06/13 05:11:46;;;;;;;7.63;3.30;;;;;;;;;;4992401;28;20220;-73
2022/06/13 05:14:20;;;;;;;5.60;2.73;;;;;;;;;;4986411;28;20235;-73
2022/06/13 05:16:58;;;;;;;7.13;2.83;;;;;;;;;;4997199;28;20218;-74
2022/06/13 05:19:35;;;;;;;5.33;2.90;;;;;;;;;;4996999;28;20743;-76
2022/06/13 05:22:24;;;;;;;6.83;2.63;;;;;;;;;;4998306;28;20582;-75
2022/06/13 05:24:56;;;;;;;6.97;2.93;;;;;;;;;;4978085;28;20204;-75
2022/06/13 05:27:23;;;;;;;8.23;2.97;;;;;;;;;;4996869;28;20187;-76
2022/06/13 05:29:49;;;;;;;5.57;2.80;;;;;;;;;;4991306;28;20196;-75
2022/06/13 05:32:17;;;;;;;6.80;2.70;;;;;;;;;;4999133;28;20700;-75
2022/06/13 05:34:45;;;;;;;5.00;2.60;;;;;;;;;;5011815;28;20193;-75
2022/06/13 05:37:13;;;;;;;6.60;2.80;;;;;;;;;;5000952;28;20188;-76
2022/06/13 05:39:40;;;;;;;4.27;2.50;;;;;;;;;;4999931;28;20247;-75
2022/06/13 05:42:07;;;;;;;5.03;2.50;;;;;;;;;;4995231;28;20198;-76
2022/06/13 05:44:33;;;;;;;6.93;3.03;;;;;;;;;;5001302;28;20222;-76
2022/06/13 05:46:59;;;;;;;9.27;2.73;;;;;;;;;;5006597;28;20580;-74
2022/06/13 05:49:25;;;;;;;8.20;2.80;;;;;;;;;;5010183;28;20186;-74
2022/06/13 05:51:52;;;;;;;4.00;2.27;;;;;;;;;;4993192;28;20203;-75
2022/06/13 05:54:18;;;;;;;5.57;2.60;;;;;;;;;;4995535;28;20238;-75
2022/06/13 05:56:44;;;;;;;7.30;2.53;;;;;;;;;;5003930;28;20198;-75
2022/06/13 05:59:11;;;;;;;6.97;2.97;;;;;;;;;;4997523;28;20179;-77
2022/06/13 06:01:38;;;;;;;7.33;2.70;;;;;;;;;;4991917;28;20685;-75
2022/06/13 06:04:05;;;;;;;6.33;2.30;;;;;;;;;;4997046;28;20217;-74
2022/06/13 06:06:32;;;;;;;5.93;2.40;;;;;;;;;;5023635;28;20302;-74
2022/06/13 06:08:59;;;;;;;6.70;2.50;;;;;;;;;;5000574;28;20188;-74
2022/06/13 06:11:27;;;;;;;6.10;2.70;;;;;;;;;;5003776;28;20219;-76
2022/06/13 06:13:53;;;;;;;7.17;2.73;;;;;;;;;;5000215;28;20192;-74
2022/06/13 06:16:21;;;;;;;4.43;2.60;;;;;;;;;;4997849;28;20191;-74
2022/06/13 06:18:47;;;;;;;6.63;2.73;;;;;;;;;;4992178;28;20181;-74
2022/06/13 06:21:14;;;;;;;5.63;2.67;;;;;;;;;;5003132;28;20779;-74
2022/06/13 06:23:40;;;;;;;4.27;2.30;;;;;;;;;;5002490;28;20179;-76
2022/06/13 06:26:07;;;;;;;3.73;2.40;;;;;;;;;;4990582;28;20208;-75
2022/06/13 06:28:33;;;;;;;4.93;2.43;;;;;;;;;;4998850;28;20183;-75
2022/06/13 06:31:01;;;;;;;5.13;2.63;;;;;;;;;;5020418;28;20289;-74
2022/06/13 06:33:28;;;;;;;5.33;2.10;;;;;;;;;;5001063;28;20184;-74
2022/06/13 06:35:54;;;;;;;7.10;2.80;;;;;;;;;;5003009;28;20184;-74
2022/06/13 06:38:21;;;;;;;6.33;2.33;;;;;;;;;;5007949;28;20856;-75
2022/06/13 06:40:48;;;;;;;3.60;2.20;;;;;;;;;;5013241;28;20206;-75
2022/06/13 06:43:14;;;;;;;5.47;2.50;;;;;;;;;;5001878;28;20565;-74
2022/06/13 06:45:42;;;;;;;5.03;2.57;;;;;;;;;;4996067;28;20208;-74
2022/06/13 06:48:15;;;;;;;7.37;2.40;;;;;;;;;;5002940;28;20188;-75
2022/06/13 06:50:44;;;;;;;6.77;2.77;;;;;;;;;;5006481;28;20638;-74
2022/06/13 06:53:11;;;;;;;6.83;3.00;;;;;;;;;;4997494;28;20263;-75
2022/06/13 07:01:09;;;;;;;6.33;2.87;;;;;;;;;;4999524;28;20290;-75
2022/06/13 07:03:35;;;;;;;4.87;2.40;;;;;;;;;;4983596;28;20350;-75
2022/06/13 07:06:02;;;;;;;5.67;2.77;;;;;;;;;;5007449;28;20211;-76
2022/06/13 07:08:28;;;;;;;5.07;2.20;;;;;;;;;;5017336;28;20184;-75
2022/06/13 07:11:53;;;;;;;5.87;2.37;;;;;;;;;;5005995;28;20603;-75
2022/06/13 07:13:41;;;;;;;5.67;2.67;;;;;;;;;;4988909;28;20658;-75
2022/06/13 07:16:07;;;;;;;8.83;2.70;;;;;;;;;;4999939;28;20599;-75
2022/06/13 07:18:33;;;;;;;6.97;2.53;;;;;;;;;;5007911;28;20649;-75
2022/06/13 07:21:00;;;;;;;4.83;2.87;;;;;;;;;;4996822;28;20207;-74
2022/06/13 07:23:26;;;;;;;6.87;2.53;;;;;;;;;;5012159;28;20211;-76
2022/06/13 07:25:52;;;;;;;6.87;2.53;;;;;;;;;;4998717;28;20218;-76
2022/06/13 07:28:18;;;;;;;5.67;2.63;;;;;;;;;;4996977;28;20717;-75
2022/06/13 07:30:45;;;;;;;5.03;2.17;;;;;;;;;;4999492;28;20717;-75
2022/06/13 07:33:11;;;;;;;5.03;2.73;;;;;;;;;;5000127;28;20649;-75
2022/06/13 07:35:37;;;;;;;6.03;2.70;;;;;;;;;;5002765;28;20176;-75
2022/06/13 07:38:18;;;;;;;8.00;3.00;;;;;;;;;;4994947;28;20692;-75
2022/06/13 07:40:46;;;;;;;6.90;2.60;;;;;;;;;;4991907;28;20705;-75
2022/06/13 07:43:37;;;;;;;4.43;2.23;;;;;;;;;;5014797;28;20188;-75
2022/06/13 07:46:05;;;;;;;5.80;2.60;;;;;;;;;;5000892;28;20199;-75
2022/06/13 07:48:32;;;;;;;5.10;2.50;;;;;;;;;;5000164;28;20237;-75
2022/06/13 07:50:58;;;;;;;6.70;2.83;;;;;;;;;;5009246;28;20689;-75
2022/06/13 07:53:25;;;;;;;5.43;2.27;;;;;;;;;;5017597;28;20287;-75
2022/06/13 07:55:51;;;;;;;5.00;2.43;;;;;;;;;;5002157;28;20286;-75
2022/06/13 07:58:31;;;;;;;4.77;2.20;;;;;;;;;;5002821;28;20313;-75
2022/06/13 08:00:57;;;;;;;4.57;2.07;;;;;;;;;;5002737;28;20258;-75
2022/06/13 08:03:24;;;;;;;5.80;2.70;;;;;;;;;;5013996;28;20557;-75
2022/06/13 08:05:51;;;;;;;6.40;2.43;;;;;;;;;;5006351;28;20206;-75
2022/06/13 08:08:18;;;;;;;6.50;2.50;;;;;;;;;;5005647;28;20257;-74
2022/06/13 08:10:44;;;;;;;5.47;2.40;;;;;;;;;;4995368;28;20339;-76
2022/06/13 08:13:15;;;;;;;4.67;2.50;;;;;;;;;;5001644;28;20274;-75
2022/06/13 08:15:41;;;;;;;4.87;2.23;;;;;;;;;;4997601;28;20683;-75
2022/06/13 08:18:08;;;;;;;5.57;2.23;;;;;;;;;;5001529;28;20194;-75
2022/06/13 08:20:34;;;;;;;3.67;1.90;;;;;;;;;;4995484;28;20203;-75
2022/06/13 08:23:00;;;;;;;4.50;2.27;;;;;;;;;;4998044;28;20187;-75
2022/06/13 08:25:28;;;;;;;4.50;2.23;;;;;;;;;;4993518;28;20200;-75
2022/06/13 08:27:55;;;;;;;8.07;2.80;;;;;;;;;;4988802;28;20184;-77
2022/06/13 08:30:21;;;;;;;6.07;2.20;;;;;;;;;;4993707;28;20591;-72
2022/06/13 08:32:48;;;;;;;5.67;2.23;;;;;;;;;;4992889;28;20202;-75
2022/06/13 08:35:14;;;;;;;4.27;2.30;;;;;;;;;;5002704;28;20183;-74
2022/06/13 08:37:41;;;;;;;4.33;2.33;;;;;;;;;;4995568;28;20172;-75
2022/06/13 08:40:08;;;;;;;5.20;1.97;;;;;;;;;;4998973;28;20179;-75
2022/06/13 08:42:44;;;;;;;5.93;2.00;;;;;;;;;;4996010;28;20199;-75
2022/06/13 08:45:33;;;;;;;3.37;1.60;;;;;;;;;;4997103;28;20229;-74
2022/06/13 08:48:21;;;;;;;2.23;1.40;;;;;;;;;;4998625;28;20590;-75
2022/06/13 08:50:53;;;;;;;3.63;2.07;;;;;;;;;;4996549;28;20199;-75
2022/06/13 08:53:23;;;;;;;4.63;1.80;;;;;;;;;;4995081;28;20180;-74
2022/06/13 08:55:53;;;;;;;4.03;1.73;;;;;;;;;;4997242;28;20194;-75
2022/06/13 08:58:35;;;;;;;4.93;1.80;;;;;;;;;;5001967;28;20259;-76
2022/06/13 09:01:04;;;;;;;2.93;1.80;;;;;;;;;;5012915;28;20281;-74
2022/06/13 09:03:42;;;;;;;4.10;2.07;;;;;;;;;;5003525;28;20217;-75
2022/06/13 09:06:17;;;;;;;5.93;1.93;;;;;;;;;;5000036;28;20246;-75
2022/06/13 09:09:06;;;;;;;4.30;1.90;;;;;;;;;;4993279;28;20174;-74
2022/06/13 09:11:35;;;;;;;5.73;2.10;;;;;;;;;;4996940;28;20670;-76
2022/06/13 09:14:16;;;;;;;5.63;1.93;;;;;;;;;;4993091;28;20664;-74
2022/06/13 09:16:45;;;;;;;4.40;2.23;;;;;;;;;;5005097;28;20746;-76
2022/06/13 09:19:16;;;;;;;3.80;2.00;;;;;;;;;;4994644;28;20275;-74
2022/06/13 09:21:42;;;;;;;3.07;1.70;;;;;;;;;;4998067;28;20195;-76
2022/06/13 09:24:44;;;;;;;3.50;1.97;;;;;;;;;;4998128;28;20175;-76
2022/06/13 09:27:14;;;;;;;6.70;2.30;;;;;;;;;;4989493;28;20222;-74
2022/06/13 09:29:52;;;;;;;3.77;1.90;;;;;;;;;;4993282;28;20199;-75
2022/06/13 09:32:19;;;;;;;3.30;1.83;;;;;;;;;;4989833;28;20261;-75
2022/06/13 09:34:47;;;;;;;3.57;1.93;;;;;;;;;;4991738;28;20187;-73
2022/06/13 09:37:14;;;;;;;3.47;2.10;;;;;;;;;;5006584;28;20183;-75
2022/06/13 09:39:41;;;;;;;4.70;1.87;;;;;;;;;;5010193;28;20182;-74
2022/06/13 09:42:26;;;;;;;4.37;1.73;;;;;;;;;;4999291;28;20684;-74
2022/06/13 09:45:04;;;;;;;2.67;1.80;;;;;;;;;;4990286;28;20191;-74
2022/06/13 09:47:30;;;;;;;2.80;1.60;;;;;;;;;;5019901;28;20214;-74
2022/06/13 09:49:56;;;;;;;3.27;1.70;;;;;;;;;;4991552;28;20245;-75
2022/06/13 09:52:43;;;;;;;2.73;1.70;;;;;;;;;;4992837;28;20278;-74
2022/06/13 09:55:21;;;;;;;6.97;2.47;;;;;;;;;;4998394;28;20179;-75
2022/06/13 09:57:48;;;;;;;5.77;1.97;;;;;;;;;;4997278;28;20693;-76
2022/06/13 10:00:17;;;;;;;5.80;2.10;;;;;;;;;;5012874;28;20214;-77
2022/06/13 10:02:43;;;;;;;4.73;1.90;;;;;;;;;;4990556;28;20198;-75
2022/06/13 10:05:18;;;;;;;4.57;2.13;;;;;;;;;;4989433;28;20274;-75
2022/06/13 10:07:49;;;;;;;5.10;2.00;;;;;;;;;;4997917;28;20179;-75
2022/06/13 10:10:21;;;;;;;4.40;2.23;;;;;;;;;;5004832;28;20262;-75
2022/06/13 10:12:47;;;;;;;3.93;2.00;;;;;;;;;;5002733;28;20175;-75
2022/06/13 10:15:40;;;;;;;6.50;2.17;;;;;;;;;;5007098;28;20191;-74
2022/06/13 10:18:30;;;;;;;4.47;2.13;;;;;;;;;;4984472;28;20190;-74
2022/06/13 10:21:17;;;;;;;4.30;2.00;;;;;;;;;;4978627;28;20712;-77
2022/06/13 10:23:46;;;;;;;4.97;2.07;;;;;;;;;;4994994;28;20286;-74
2022/06/13 10:26:15;;;;;;;4.97;1.73;;;;;;;;;;4999224;28;20335;-75
2022/06/13 10:28:41;;;;;;;3.37;1.63;;;;;;;;;;5003665;28;20180;-75
2022/06/13 10:31:16;;;;;;;4.33;1.90;;;;;;;;;;4996084;28;20198;-74
2022/06/13 10:33:53;;;;;;;3.37;1.90;;;;;;;;;;4994821;28;20182;-74
2022/06/13 10:36:28;;;;;;;3.87;2.00;;;;;;;;;;4997432;28;20178;-72
2022/06/13 10:38:55;;;;;;;6.90;1.90;;;;;;;;;;4995542;28;20557;-75
2022/06/13 10:41:23;;;;;;;5.67;2.20;;;;;;;;;;4993020;28;20204;-73
2022/06/13 10:43:49;;;;;;;4.67;2.13;;;;;;;;;;4998479;28;20191;-76
2022/06/13 10:46:16;;;;;;;3.73;2.07;;;;;;;;;;4995523;28;20308;-72
2022/06/13 10:48:42;;;;;;;4.27;2.13;;;;;;;;;;5001432;28;20537;-75
2022/06/13 10:51:08;;;;;;;3.87;2.07;;;;;;;;;;5001328;28;20272;-74
2022/06/13 10:53:48;;;;;;;4.73;2.10;;;;;;;;;;5003137;28;20188;-75
2022/06/13 10:56:34;;;;;;;3.17;1.70;;;;;;;;;;4996657;28;20275;-74
2022/06/13 10:59:01;;;;;;;5.33;1.73;;;;;;;;;;5016966;28;20716;-75
2022/06/13 11:01:30;;;;;;;6.33;1.87;;;;;;;;;;5003035;28;20222;-78
2022/06/13 11:04:05;;;;;;;5.67;2.10;;;;;;;;;;5019296;28;20183;-80
2022/06/13 11:06:34;;;;;;;4.47;1.80;;;;;;;;;;4994977;28;20254;-81
2022/06/13 11:09:02;;;;;;;4.00;1.80;;;;;;;;;;5020110;28;20207;-80
2022/06/13 11:11:29;;;;;;;3.80;1.77;;;;;;;;;;4999257;28;20294;-79
2022/06/13 11:13:56;;;;;;;5.03;1.80;;;;;;;;;;4999171;28;20181;-81
2022/06/13 11:22:39;;;;;;;3.17;1.77;;;;;;;;;;4997455;28;20679;-81
2022/06/13 11:25:14;;;;;;;4.60;1.70;;;;;;;;;;4992541;28;20661;-81
2022/06/13 11:27:41;;;;;;;2.97;1.93;;;;;;;;;;5000588;28;20199;-81
2022/06/13 11:30:37;;;;;;;3.67;1.83;;;;;;;;;;4993489;28;21872;-81
2022/06/13 11:33:05;;;;;;;3.60;1.80;;;;;;;;;;4997740;28;20199;-81
2022/06/13 11:35:36;;;;;;;5.57;2.00;;;;;;;;;;5000446;28;20230;-81
2022/06/13 11:38:21;;;;;;;6.00;1.80;;;;;;;;;;5000652;28;20187;-81
2022/06/13 11:40:56;;;;;;;3.40;2.00;;;;;;;;;;5018943;28;20203;-82
2022/06/13 11:43:30;;;;;;;3.83;1.70;;;;;;;;;;4992010;28;20570;-80
2022/06/13 11:45:59;;;;;;;3.70;1.97;;;;;;;;;;4995342;28;20210;-80
2022/06/13 11:48:28;;;;;;;3.17;2.00;;;;;;;;;;4999885;28;20224;-82
2022/06/13 11:51:05;;;;;;;6.70;2.20;;;;;;;;;;4998308;28;20261;-77
2022/06/13 11:53:38;;;;;;;4.83;2.23;;;;;;;;;;4990887;28;20273;-73
2022/06/13 11:56:06;;;;;;;5.07;1.70;;;;;;;;;;5008271;28;20732;-76
2022/06/13 11:58:37;;;;;;;3.63;1.80;;;;;;;;;;4995802;28;20172;-75
2022/06/13 12:01:09;;;;;;;3.37;1.87;;;;;;;;;;4989651;28;20200;-74
2022/06/13 12:03:36;;;;;;;2.93;1.90;;;;;;;;;;4989492;28;20190;-74
2022/06/13 12:06:09;;;;;;;4.20;1.80;;;;;;;;;;4998292;28;20251;-74
2022/06/13 12:08:35;;;;;;;1.90;1.70;;;;;;;;;;4991922;28;20180;-75
2022/06/13 12:11:04;;;;;;;3.47;1.80;;;;;;;;;;4996861;28;20200;-74
2022/06/13 12:13:32;;;;;;;5.67;1.90;;;;;;;;;;5002045;28;20184;-75
2022/06/13 12:16:05;;;;;;;3.47;1.90;;;;;;;;;;5002700;28;20191;-75
2022/06/13 12:18:43;;;;;;;3.50;1.83;;;;;;;;;;5004086;28;20191;-75
2022/06/13 12:21:14;;;;;;;3.40;1.87;;;;;;;;;;4999827;28;20215;-75
2022/06/13 12:23:50;;;;;;;2.53;1.67;;;;;;;;;;5009993;28;20187;-76
2022/06/13 12:26:16;;;;;;;2.37;1.70;;;;;;;;;;5010250;28;20199;-75
2022/06/13 12:28:53;;;;;;;5.63;2.13;;;;;;;;;;5021012;28;20185;-74
2022/06/13 12:31:46;;;;;;;5.17;1.90;;;;;;;;;;4995822;28;20214;-76
2022/06/13 12:34:20;;;;;;;3.87;2.00;;;;;;;;;;4992792;28;20245;-74
2022/06/13 12:37:01;;;;;;;3.17;1.97;;;;;;;;;;5003280;28;20184;-75
2022/06/13 12:39:39;;;;;;;2.73;1.80;;;;;;;;;;5006584;28;20585;-75
2022/06/13 12:42:22;;;;;;;5.47;2.17;;;;;;;;;;5006484;28;20885;-74
2022/06/13 12:45:07;;;;;;;4.57;1.97;;;;;;;;;;5000888;28;20186;-75
2022/06/13 12:47:39;;;;;;;4.20;1.80;;;;;;;;;;4998285;28;20229;-74
2022/06/13 12:50:08;;;;;;;4.50;1.93;;;;;;;;;;5008273;28;20184;-74
2022/06/13 12:52:54;;;;;;;3.73;2.20;;;;;;;;;;5001299;28;20595;-74
2022/06/13 12:55:23;;;;;;;4.20;2.00;;;;;;;;;;5008319;28;20203;-75
2022/06/13 12:58:08;;;;;;;4.10;2.07;;;;;;;;;;4992824;28;20197;-74
2022/06/13 13:00:39;;;;;;;2.93;1.97;;;;;;;;;;4996791;28;20716;-76
2022/06/13 13:03:17;;;;;;;4.43;1.90;;;;;;;;;;5004045;28;20223;-74
2022/06/13 13:05:43;;;;;;;5.03;1.93;;;;;;;;;;5015219;28;20211;-74
2022/06/13 13:08:13;;;;;;;7.03;2.07;;;;;;;;;;4990298;28;20181;-75
2022/06/13 13:10:58;;;;;;;10.47;2.30;;;;;;;;;;4998757;28;20233;-75
2022/06/13 13:13:28;;;;;;;3.27;2.10;;;;;;;;;;4997589;28;20187;-74
2022/06/13 13:16:05;;;;;;;2.93;1.87;;;;;;;;;;4994294;28;20188;-74
2022/06/13 13:18:54;;;;;;;3.37;1.90;;;;;;;;;;4995918;28;20599;-75
2022/06/13 13:21:24;;;;;;;3.60;2.03;;;;;;;;;;4985386;28;20199;-74
2022/06/13 13:23:53;;;;;;;4.23;2.03;;;;;;;;;;4996939;28;20251;-74
2022/06/13 13:26:34;;;;;;;2.20;1.97;;;;;;;;;;4995029;28;20209;-74
2022/06/13 13:29:09;;;;;;;5.17;2.17;;;;;;;;;;5005694;28;20186;-77
2022/06/13 13:31:42;;;;;;;5.00;2.07;;;;;;;;;;4991327;28;20220;-78
2022/06/13 13:34:27;;;;;;;4.57;2.10;;;;;;;;;;4989493;28;20209;-78
2022/06/13 13:37:03;;;;;;;3.50;1.90;;;;;;;;;;4992636;28;20206;-81
2022/06/13 13:39:40;;;;;;;3.90;2.20;;;;;;;;;;4991603;28;20193;-76
2022/06/13 13:42:21;;;;;;;4.70;1.90;;;;;;;;;;4992309;28;20221;-77
2022/06/13 13:44:50;;;;;;;4.57;2.10;;;;;;;;;;5003017;28;20187;-76
2022/06/13 13:47:21;;;;;;;4.23;2.20;;;;;;;;;;4997472;28;20203;-75
2022/06/13 13:50:02;;;;;;;5.43;2.20;;;;;;;;;;4997914;28;20236;-76
2022/06/13 13:52:43;;;;;;;3.37;2.00;;;;;;;;;;4996954;28;20758;-76
2022/06/13 13:55:28;;;;;;;4.60;2.47;;;;;;;;;;4996878;28;20190;-76
2022/06/13 13:57:58;;;;;;;4.90;2.33;;;;;;;;;;4995985;28;20713;-77
2022/06/13 14:00:27;;;;;;;4.43;2.10;;;;;;;;;;4995977;28;20661;-77
2022/06/13 14:02:59;;;;;;;3.43;2.07;;;;;;;;;;4997302;28;20183;-80
2022/06/13 14:05:42;;;;;;;4.83;2.20;;;;;;;;;;4997142;28;20242;-75
2022/06/13 14:08:18;;;;;;;4.60;2.20;;;;;;;;;;4994550;28;20661;-79
2022/06/13 14:10:47;;;;;;;2.67;2.10;;;;;;;;;;4997064;28;20875;-76
2022/06/13 14:13:19;;;;;;;5.30;2.33;;;;;;;;;;4994271;28;20186;-79
2022/06/13 14:15:52;;;;;;;6.10;2.50;;;;;;;;;;4995364;28;20239;-78
2022/06/13 14:18:38;;;;;;;4.47;2.23;;;;;;;;;;4996751;28;20195;-76
2022/06/13 14:21:14;;;;;;;5.93;2.60;;;;;;;;;;4989890;28;20255;-76
2022/06/13 14:23:45;;;;;;;5.13;2.57;;;;;;;;;;4998152;28;20211;-76
2022/06/13 14:26:21;;;;;;;5.20;2.20;;;;;;;;;;4995762;28;20199;-76
2022/06/13 14:28:50;;;;;;;5.23;2.50;;;;;;;;;;4995006;28;20172;-80
2022/06/13 14:31:16;;;;;;;6.50;2.50;;;;;;;;;;4994569;28;20302;-76
2022/06/13 14:36:50;;;;;;;5.63;2.40;;;;;;;;;;4996832;28;20212;-79
2022/06/13 14:39:35;;;;;;;4.87;2.30;;;;;;;;;;4988973;28;20687;-78
2022/06/13 14:42:13;;;;;;;5.53;2.40;;;;;;;;;;4994371;28;20270;-77
2022/06/13 14:44:43;;;;;;;5.00;2.50;;;;;;;;;;4998486;28;20190;-77
2022/06/13 14:47:16;;;;;;;6.30;2.50;;;;;;;;;;4997065;28;20225;-77
2022/06/13 14:49:48;;;;;;;9.93;2.40;;;;;;;;;;4995511;28;20177;-77
2022/06/13 14:52:19;;;;;;;7.27;2.73;;;;;;;;;;4996101;28;20206;-77
2022/06/13 14:55:03;;;;;;;6.27;2.90;;;;;;;;;;4992282;28;20208;-77
2022/06/13 14:57:30;;;;;;;5.03;2.67;;;;;;;;;;4997419;28;20192;-77
2022/06/13 15:00:07;;;;;;;6.97;2.60;;;;;;;;;;5015588;28;20185;-76
2022/06/13 15:02:52;;;;;;;5.10;2.43;;;;;;;;;;4996778;28;20216;-76
2022/06/13 15:05:19;;;;;;;7.10;2.67;;;;;;;;;;5000763;28;20248;-77
2022/06/13 15:07:48;;;;;;;5.37;2.70;;;;;;;;;;4995311;28;20187;-76
2022/06/13 15:10:19;;;;;;;4.70;2.50;;;;;;;;;;4998473;28;20756;-76
2022/06/13 15:12:45;;;;;;;4.63;2.47;;;;;;;;;;4997721;28;20189;-77
2022/06/13 15:15:23;;;;;;;4.83;2.50;;;;;;;;;;4999339;28;20195;-76
2022/06/13 15:17:51;;;;;;;4.87;2.23;;;;;;;;;;4998139;28;20677;-77
2022/06/13 15:20:20;;;;;;;4.23;2.40;;;;;;;;;;4996797;28;20262;-76
2022/06/13 15:22:51;;;;;;;4.00;2.57;;;;;;;;;;4997756;28;20193;-76
2022/06/13 15:25:34;;;;;;;4.43;2.30;;;;;;;;;;4996492;28;20184;-77
2022/06/13 15:28:00;;;;;;;6.73;2.60;;;;;;;;;;5000477;28;20182;-76
2022/06/13 15:30:26;;;;;;;4.40;2.53;;;;;;;;;;4997459;28;20235;-76